Time;durP1;ratioP1;P1;durP2;ratioP2;P2;SDS_P1;SDS_P2;PMS_P1;PMS_P2;Temp;Humidity;BMP_temperature;BMP_pressure;BME280_temperature;BME280_humidity;BME280_pressure;Samples;Min_cycle;Max_cycle;Signal;HPM_P1;HPM_P2
2024/01/14 00:01:54;;;;;;;14.00;11.10;;;;;;;6.74;50.78;100820.40;109473;1251;71398;-60
2024/01/14 00:04:23;;;;;;;13.60;10.60;;;;;;;6.73;50.57;100815.67;109592;1251;71428;-60
2024/01/14 00:06:51;;;;;;;14.20;11.10;;;;;;;6.72;50.37;100815.67;109521;1253;58197;-59
2024/01/14 00:09:19;;;;;;;12.70;10.60;;;;;;;6.71;50.12;100816.36;109356;1251;58851;-59
2024/01/14 00:11:47;;;;;;;13.60;10.20;;;;;;;6.70;50.02;100819.33;109411;1251;72668;-58
2024/01/14 00:14:15;;;;;;;12.50;10.50;;;;;;;6.70;49.73;100814.96;109608;1250;71532;-60
2024/01/14 00:16:43;;;;;;;13.90;10.70;;;;;;;6.69;49.62;100809.73;109567;1252;71447;-61
2024/01/14 00:19:10;;;;;;;14.10;10.80;;;;;;;6.69;49.53;100813.91;109564;1250;58485;-61
2024/01/14 00:21:38;;;;;;;12.70;10.20;;;;;;;6.69;49.47;100813.55;109610;1250;60090;-61
2024/01/14 00:24:06;;;;;;;13.90;10.60;;;;;;;6.69;49.30;100810.24;109584;1251;73889;-61
2024/01/14 00:26:33;;;;;;;15.80;10.60;;;;;;;6.69;49.13;100810.94;109420;1251;72845;-62
2024/01/14 00:29:04;;;;;;;13.50;10.60;;;;;;;6.67;48.98;100812.14;109570;1251;72758;-60
2024/01/14 00:31:32;;;;;;;15.10;10.80;;;;;;;6.66;48.83;100812.99;109569;1251;59320;-61
2024/01/14 00:34:00;;;;;;;12.50;9.80;;;;;;;6.65;48.80;100809.67;109394;1251;60599;-60
2024/01/14 00:36:27;;;;;;;15.00;10.30;;;;;;;6.66;48.70;100812.30;109584;1250;73896;-60
2024/01/14 00:38:55;;;;;;;12.50;9.80;;;;;;;6.67;48.82;100810.22;109566;1251;72976;-60
2024/01/14 00:41:24;;;;;;;13.50;10.10;;;;;;;6.67;48.78;100813.55;109553;1251;72703;-60
2024/01/14 00:43:51;;;;;;;15.20;10.80;;;;;;;6.68;48.73;100810.23;109642;1250;58153;-60
2024/01/14 00:46:19;;;;;;;14.20;10.20;;;;;;;6.69;48.70;100805.52;109570;1250;58964;-62
2024/01/14 00:48:46;;;;;;;15.60;10.40;;;;;;;6.70;48.76;100802.05;109547;1251;73863;-61
2024/01/14 00:51:14;;;;;;;13.60;10.40;;;;;;;6.71;48.60;100801.90;109597;1250;71465;-61
2024/01/14 00:53:42;;;;;;;16.00;10.10;;;;;;;6.71;48.49;100787.25;109616;1251;71891;-62
2024/01/14 00:56:11;;;;;;;14.20;10.40;;;;;;;6.70;48.46;100779.05;109337;1256;58154;-62
2024/01/14 00:58:39;;;;;;;14.80;11.00;;;;;;;6.70;48.43;100778.88;109650;1251;58432;-61
2024/01/14 01:01:07;;;;;;;14.60;10.90;;;;;;;6.70;48.22;100778.52;109267;1251;73970;-62
2024/01/14 01:03:34;;;;;;;16.20;11.10;;;;;;;6.70;48.24;100773.48;109562;1250;72977;-62
2024/01/14 01:06:03;;;;;;;17.90;11.40;;;;;;;6.70;48.22;100770.85;109608;1251;72729;-63
2024/01/14 01:08:31;;;;;;;14.30;10.40;;;;;;;6.70;48.30;100765.64;109333;1251;59352;-62
2024/01/14 01:10:58;;;;;;;15.20;11.40;;;;;;;6.71;48.27;100757.79;109589;1251;58807;-61
2024/01/14 01:13:26;;;;;;;13.80;10.80;;;;;;;6.73;48.24;100757.81;109578;1251;73952;-61
2024/01/14 01:15:53;;;;;;;15.70;11.30;;;;;;;6.74;48.28;100770.70;109591;1251;72870;-60
2024/01/14 01:18:21;;;;;;;14.20;10.80;;;;;;;6.73;48.27;100785.00;109606;1251;71273;-60
2024/01/14 01:20:51;;;;;;;12.90;9.90;;;;;;;6.71;48.17;100770.17;109517;1251;59472;-61
2024/01/14 01:23:19;;;;;;;14.20;10.60;;;;;;;6.70;48.32;100772.42;109599;1251;60512;-61
2024/01/14 01:25:46;;;;;;;12.90;9.90;;;;;;;6.72;48.35;100772.95;109607;1251;73915;-61
2024/01/14 01:28:14;;;;;;;14.50;10.70;;;;;;;6.73;48.45;100773.67;109597;1251;72407;-63
2024/01/14 01:30:42;;;;;;;12.50;10.30;;;;;;;6.74;48.44;100767.22;109546;1251;71428;-61
2024/01/14 01:33:09;;;;;;;12.50;9.40;;;;;;;6.75;48.51;100767.41;109131;1251;59331;-65
2024/01/14 01:35:37;;;;;;;11.50;9.80;;;;;;;6.76;48.38;100766.02;109547;1251;60066;-61
2024/01/14 01:38:05;;;;;;;12.40;9.90;;;;;;;6.77;48.33;100768.29;109560;1250;73024;-61
2024/01/14 01:40:33;;;;;;;11.80;9.50;;;;;;;6.77;48.32;100766.55;109588;1251;72734;-61
2024/01/14 01:43:00;;;;;;;11.70;9.40;;;;;;;6.78;48.27;100765.16;109540;1251;71740;-61
2024/01/14 01:45:28;;;;;;;13.40;9.40;;;;;;;6.79;48.19;100758.54;109600;1250;59272;-62
2024/01/14 01:47:56;;;;;;;11.60;9.50;;;;;;;6.80;48.11;100750.52;109579;1250;60159;-61
2024/01/14 01:50:23;;;;;;;13.20;9.90;;;;;;;6.81;48.09;100750.55;109531;1251;73936;-61
2024/01/14 01:52:51;;;;;;;13.00;9.60;;;;;;;6.81;48.19;100750.02;109429;1251;72832;-60
2024/01/14 01:55:19;;;;;;;14.10;10.10;;;;;;;6.82;48.18;100748.81;109611;1251;72631;-60
2024/01/14 01:57:47;;;;;;;13.00;10.40;;;;;;;6.82;48.16;100750.91;109550;1253;59309;-60
2024/01/14 02:00:14;;;;;;;11.40;9.40;;;;;;;6.83;48.12;100744.11;109579;1251;58795;-60
2024/01/14 02:02:42;;;;;;;12.80;10.20;;;;;;;6.83;47.89;100739.92;109600;1250;73922;-63
2024/01/14 02:05:10;;;;;;;11.00;9.00;;;;;;;6.81;47.84;100737.83;109553;1250;72820;-61
2024/01/14 02:07:39;;;;;;;11.50;8.90;;;;;;;6.81;47.71;100736.95;109539;1251;71198;-62
2024/01/14 02:10:06;;;;;;;11.60;9.20;;;;;;;6.81;47.72;100735.21;109586;1251;58631;-63
2024/01/14 02:12:34;;;;;;;13.50;9.80;;;;;;;6.81;47.75;100736.61;109512;1250;60014;-63
2024/01/14 02:15:02;;;;;;;12.90;9.30;;;;;;;6.82;47.65;100736.25;109580;1251;76567;-63
2024/01/14 02:17:30;;;;;;;11.10;9.40;;;;;;;6.82;47.62;100734.70;109653;1250;71534;-63
2024/01/14 02:19:58;;;;;;;14.80;9.60;;;;;;;6.83;47.62;100733.65;109565;1251;71421;-63
2024/01/14 02:22:29;;;;;;;11.30;8.80;;;;;;;6.83;47.65;100738.17;109602;1251;58373;-62
2024/01/14 02:24:57;;;;;;;13.00;10.10;;;;;;;6.84;47.58;100737.84;109571;1251;58828;-60
2024/01/14 02:27:25;;;;;;;11.40;8.60;;;;;;;6.84;47.66;100736.27;109448;1250;73992;-60
2024/01/14 02:29:53;;;;;;;11.00;8.80;;;;;;;6.85;47.62;100731.05;109559;1251;72913;-59
2024/01/14 02:32:21;;;;;;;11.70;8.60;;;;;;;6.86;47.61;100729.48;109565;1253;70530;-59
2024/01/14 02:34:49;;;;;;;14.20;10.10;;;;;;;6.86;47.69;100725.99;109363;1251;58458;-59
2024/01/14 02:37:17;;;;;;;12.80;9.90;;;;;;;6.87;47.71;100722.34;109587;1250;61047;-58
2024/01/14 02:39:44;;;;;;;13.10;10.00;;;;;;;6.89;47.78;100722.70;109564;1251;72957;-59
2024/01/14 02:42:12;;;;;;;14.60;8.80;;;;;;;6.89;47.87;100719.20;109546;1251;74217;-59
2024/01/14 02:44:40;;;;;;;11.70;9.30;;;;;;;6.89;48.03;100720.09;109551;1251;72727;-59
2024/01/14 02:47:07;;;;;;;13.60;10.60;;;;;;;6.90;48.16;100723.23;109514;1250;58218;-59
2024/01/14 02:49:35;;;;;;;10.90;8.60;;;;;;;6.91;48.08;100716.61;109556;1250;62672;-58
2024/01/14 02:52:03;;;;;;;13.40;9.00;;;;;;;6.91;48.11;100717.31;109439;1251;73873;-58
2024/01/14 02:54:30;;;;;;;14.80;9.80;;;;;;;6.93;48.12;100714.88;109539;1251;71633;-58
2024/01/14 02:56:59;;;;;;;13.20;9.90;;;;;;;6.94;48.32;100718.03;109607;1250;71545;-58
2024/01/14 02:59:27;;;;;;;13.50;10.00;;;;;;;6.94;48.32;100714.02;109549;1251;58484;-58
2024/01/14 03:01:55;;;;;;;12.20;9.10;;;;;;;6.94;48.35;100710.89;109590;1251;58777;-58
2024/01/14 03:04:22;;;;;;;11.60;8.90;;;;;;;6.95;48.43;100706.70;109547;1251;72819;-62
2024/01/14 03:06:50;;;;;;;10.20;8.40;;;;;;;6.95;48.58;100704.45;109604;1250;71563;-60
2024/01/14 03:09:18;;;;;;;11.00;8.60;;;;;;;6.96;48.62;100699.90;109583;1253;72729;-60
2024/01/14 03:11:45;;;;;;;10.90;8.20;;;;;;;6.96;48.67;100693.98;109603;1251;58354;-59
2024/01/14 03:14:13;;;;;;;13.30;9.30;;;;;;;6.97;48.63;100688.92;109616;1251;58240;-60
2024/01/14 03:16:40;;;;;;;12.70;9.30;;;;;;;6.98;48.56;100685.96;109631;1251;73889;-60
2024/01/14 03:19:08;;;;;;;11.60;8.90;;;;;;;6.98;48.45;100687.54;109454;1251;72747;-60
2024/01/14 03:21:37;;;;;;;12.80;9.20;;;;;;;6.99;48.35;100686.15;109540;1251;71419;-61
2024/01/14 03:24:04;;;;;;;11.90;9.10;;;;;;;6.99;48.34;100684.06;109554;1250;58250;-60
2024/01/14 03:26:32;;;;;;;13.40;9.50;;;;;;;7.00;48.01;100685.98;109569;1251;60083;-60
2024/01/14 03:29:00;;;;;;;12.90;9.70;;;;;;;7.00;47.89;100684.40;109575;1250;72636;-61
2024/01/14 03:31:27;;;;;;;13.80;10.70;;;;;;;6.99;47.91;100684.23;109594;1251;73462;-60
2024/01/14 03:33:56;;;;;;;16.80;10.40;;;;;;;7.00;47.77;100676.73;109586;1251;72702;-60
2024/01/14 03:36:24;;;;;;;12.90;10.00;;;;;;;7.01;47.84;100678.48;109571;1251;58409;-60
2024/01/14 03:38:52;;;;;;;14.00;10.50;;;;;;;7.02;47.79;100677.77;109584;1251;58787;-62
2024/01/14 03:41:19;;;;;;;14.00;10.30;;;;;;;7.03;47.89;100679.71;109598;1251;73883;-60
2024/01/14 03:43:47;;;;;;;15.40;10.70;;;;;;;7.04;47.96;100675.35;109569;1251;72897;-63
2024/01/14 03:46:15;;;;;;;14.10;10.50;;;;;;;7.05;47.94;100672.92;109534;1251;72740;-65
2024/01/14 03:48:43;;;;;;;13.60;9.90;;;;;;;7.06;47.85;100667.86;109594;1251;58233;-64
2024/01/14 03:51:11;;;;;;;12.40;9.50;;;;;;;7.07;47.89;100666.47;109570;1253;58726;-64
2024/01/14 03:53:38;;;;;;;13.30;10.70;;;;;;;7.07;47.84;100669.98;109579;1250;73882;-64
2024/01/14 03:56:06;;;;;;;16.20;11.10;;;;;;;7.08;47.86;100668.05;109579;1251;71213;-65
2024/01/14 03:58:34;;;;;;;13.60;10.30;;;;;;;7.09;47.77;100661.95;109627;1251;72759;-69
2024/01/14 04:01:01;;;;;;;14.60;10.40;;;;;;;7.10;47.76;100664.06;109534;1251;59357;-67
2024/01/14 04:03:29;;;;;;;13.70;10.30;;;;;;;7.11;47.76;100659.17;109585;1250;58787;-67
2024/01/14 04:05:58;;;;;;;14.80;11.50;;;;;;;7.12;47.81;100650.28;109398;1251;73958;-67
2024/01/14 04:08:26;;;;;;;14.80;10.80;;;;;;;7.13;47.84;100645.05;109409;1250;71306;-65
2024/01/14 04:10:53;;;;;;;14.30;10.60;;;;;;;7.14;47.76;100642.61;109623;1250;71403;-65
2024/01/14 04:13:21;;;;;;;14.80;10.60;;;;;;;7.15;47.86;100637.39;109152;1251;59527;-66
2024/01/14 04:15:49;;;;;;;14.80;10.90;;;;;;;7.16;47.80;100630.59;109433;1251;58775;-66
2024/01/14 04:18:16;;;;;;;14.80;10.90;;;;;;;7.17;47.82;100627.09;109596;1251;73949;-64
2024/01/14 04:20:44;;;;;;;12.80;9.90;;;;;;;7.17;47.86;100623.27;109540;1251;72851;-65
2024/01/14 04:23:11;;;;;;;15.10;10.40;;;;;;;7.18;47.89;100623.27;109581;1251;71641;-65
2024/01/14 04:25:39;;;;;;;14.40;11.50;;;;;;;7.19;47.79;100624.15;109585;1251;58262;-65
2024/01/14 04:28:07;;;;;;;14.30;10.00;;;;;;;7.20;47.83;100621.89;109458;1251;58790;-68
2024/01/14 04:30:35;;;;;;;12.10;9.40;;;;;;;7.21;47.84;100615.60;109546;1251;73904;-66
2024/01/14 04:33:02;;;;;;;15.20;11.10;;;;;;;7.21;47.80;100610.39;109616;1250;72982;-71
2024/01/14 04:35:33;;;;;;;15.50;10.90;;;;;;;7.22;47.80;100608.45;109525;1250;72751;-68
2024/01/14 04:38:01;;;;;;;12.50;9.80;;;;;;;7.23;47.75;100603.40;109364;1251;58331;-65
2024/01/14 04:40:28;;;;;;;13.30;9.80;;;;;;;7.24;47.83;100599.56;109601;1251;58178;-70
2024/01/14 04:42:56;;;;;;;13.10;10.40;;;;;;;7.24;47.72;100599.74;109416;1251;72592;-72
2024/01/14 04:45:23;;;;;;;12.20;9.20;;;;;;;7.25;47.65;100599.91;109563;1251;72869;-70
2024/01/14 04:47:51;;;;;;;14.90;10.40;;;;;;;7.26;47.67;100597.48;109521;1250;71412;-69
2024/01/14 04:50:19;;;;;;;13.80;9.90;;;;;;;7.27;47.67;100593.47;109577;1253;58167;-69
2024/01/14 04:52:47;;;;;;;13.00;9.70;;;;;;;7.27;47.62;100595.38;109448;1251;60023;-67
2024/01/14 04:55:14;;;;;;;12.00;9.80;;;;;;;7.27;47.65;100595.73;109559;1250;73915;-68
2024/01/14 04:57:42;;;;;;;13.40;9.80;;;;;;;7.28;47.70;100596.96;109622;1251;70244;-62
2024/01/14 05:00:14;;;;;;;13.40;10.00;;;;;;;7.28;47.55;100594.16;109553;1251;71449;-63
2024/01/14 05:02:43;;;;;;;14.50;10.70;;;;;;;7.29;47.62;100592.41;109546;1250;58811;-62
2024/01/14 05:05:10;;;;;;;13.40;9.70;;;;;;;7.30;47.56;100588.06;109590;1250;60092;-62
2024/01/14 05:07:39;;;;;;;12.70;10.20;;;;;;;7.30;47.62;100583.36;109567;1250;73862;-61
2024/01/14 05:10:07;;;;;;;13.70;10.60;;;;;;;7.30;47.45;100583.52;109587;1251;72873;-62
2024/01/14 05:12:35;;;;;;;14.50;9.90;;;;;;;7.30;47.49;100583.17;109431;1251;72761;-62
2024/01/14 05:15:03;;;;;;;11.80;8.90;;;;;;;7.31;47.55;100588.08;109274;1251;58239;-62
2024/01/14 05:17:31;;;;;;;12.60;8.90;;;;;;;7.31;47.58;100588.77;109466;1251;60241;-63
2024/01/14 05:19:59;;;;;;;14.30;9.30;;;;;;;7.32;47.79;100588.60;109553;1250;73888;-61
2024/01/14 05:22:27;;;;;;;11.60;8.70;;;;;;;7.33;47.76;100587.73;109425;1251;72456;-60
2024/01/14 05:24:56;;;;;;;11.70;9.30;;;;;;;7.33;47.84;100583.54;109550;1251;71126;-60
2024/01/14 05:27:23;;;;;;;11.80;9.20;;;;;;;7.33;47.93;100587.38;109546;1251;59331;-59
2024/01/14 05:29:51;;;;;;;12.30;9.40;;;;;;;7.34;48.08;100582.49;109433;1250;58820;-59
2024/01/14 05:32:19;;;;;;;12.70;8.60;;;;;;;7.34;48.25;100577.27;109589;1251;73948;-59
2024/01/14 05:34:46;;;;;;;11.60;9.50;;;;;;;7.35;48.23;100579.36;109556;1251;72929;-60
2024/01/14 05:37:14;;;;;;;11.20;8.60;;;;;;;7.35;48.10;100576.91;109540;1250;72727;-60
2024/01/14 05:39:42;;;;;;;10.40;7.90;;;;;;;7.36;47.94;100578.83;109602;1251;59339;-60
2024/01/14 05:42:09;;;;;;;10.70;7.70;;;;;;;7.37;47.71;100576.22;109548;1250;58815;-61
2024/01/14 05:44:37;;;;;;;11.00;8.60;;;;;;;7.37;47.67;100577.27;109612;1251;72716;-61
2024/01/14 05:47:05;;;;;;;10.30;7.70;;;;;;;7.38;47.64;100570.12;109514;1251;71782;-64
2024/01/14 05:49:33;;;;;;;12.50;9.00;;;;;;;7.39;47.64;100566.98;109244;1251;308269;-61
2024/01/14 05:52:00;;;;;;;9.50;7.50;;;;;;;7.40;47.44;100564.70;109525;1251;58166;-64
2024/01/14 05:54:28;;;;;;;12.00;8.50;;;;;;;7.40;47.34;100566.27;109591;1251;60061;-64
2024/01/14 05:56:57;;;;;;;12.60;7.80;;;;;;;7.41;47.19;100568.55;109595;1250;73282;-64
2024/01/14 05:59:25;;;;;;;11.00;7.40;;;;;;;7.42;47.01;100560.00;109588;1251;71805;-65
2024/01/14 06:01:55;;;;;;;10.20;8.50;;;;;;;7.43;46.89;100553.71;109295;1256;71851;-62
2024/01/14 06:04:23;;;;;;;11.30;7.80;;;;;;;7.44;46.85;100554.23;109548;1251;58226;-65
2024/01/14 06:06:50;;;;;;;9.60;7.60;;;;;;;7.45;46.74;100551.29;109591;1250;58766;-55
2024/01/14 06:09:19;;;;;;;10.60;7.70;;;;;;;7.44;46.54;100550.06;109552;1251;73927;-56
2024/01/14 06:11:46;;;;;;;12.00;8.40;;;;;;;7.45;46.38;100549.88;109599;1250;72845;-55
2024/01/14 06:14:14;;;;;;;10.80;7.80;;;;;;;7.45;46.37;100548.66;109581;1251;71909;-55
2024/01/14 06:16:42;;;;;;;11.70;8.30;;;;;;;7.46;46.40;100551.11;109575;1253;58271;-57
2024/01/14 06:19:09;;;;;;;14.60;9.40;;;;;;;7.47;46.39;100544.83;109533;1251;58802;-56
2024/01/14 06:21:41;;;;;;;12.40;9.00;;;;;;;7.48;46.61;100543.43;109581;1251;73010;-55
2024/01/14 06:24:09;;;;;;;12.60;8.80;;;;;;;7.48;46.52;100542.22;109416;1251;72837;-56
2024/01/14 06:26:38;;;;;;;13.90;9.20;;;;;;;7.49;46.56;100539.43;109521;1251;71417;-56
2024/01/14 06:29:05;;;;;;;11.60;8.70;;;;;;;7.49;46.67;100545.35;109573;1251;58544;-55
2024/01/14 06:31:33;;;;;;;12.70;9.30;;;;;;;7.50;46.54;100542.21;109585;1250;60009;-57
2024/01/14 06:34:01;;;;;;;12.90;9.10;;;;;;;7.51;46.60;100546.56;109593;1251;73892;-58
2024/01/14 06:36:28;;;;;;;14.00;9.90;;;;;;;7.51;46.51;100546.06;109440;1251;72573;-57
2024/01/14 06:38:56;;;;;;;15.60;10.20;;;;;;;7.52;46.62;100540.80;109535;1251;72715;-56
2024/01/14 06:41:24;;;;;;;13.80;9.20;;;;;;;7.53;46.64;100542.55;109508;1251;58212;-56
2024/01/14 06:43:52;;;;;;;13.50;9.30;;;;;;;7.54;46.48;100542.92;109625;1251;58796;-57
2024/01/14 06:46:20;;;;;;;15.20;10.60;;;;;;;7.55;46.48;100542.91;109580;1251;72937;-55
2024/01/14 06:48:48;;;;;;;13.90;9.40;;;;;;;7.55;46.52;100539.59;109569;1251;72904;-56
2024/01/14 06:51:17;;;;;;;12.70;9.20;;;;;;;7.57;46.56;100536.61;109530;1251;72727;-55
2024/01/14 06:53:45;;;;;;;13.00;9.60;;;;;;;7.58;46.45;100536.64;109337;1251;58532;-55
2024/01/14 06:56:16;;;;;;;13.10;9.40;;;;;;;7.59;46.42;100533.67;109608;1251;58820;-55
2024/01/14 06:58:44;;;;;;;11.60;9.00;;;;;;;7.60;46.58;100532.61;109563;1251;74064;-56
2024/01/14 07:01:11;;;;;;;12.50;9.00;;;;;;;7.60;46.45;100530.36;109291;1251;72359;-55
2024/01/14 07:03:41;;;;;;;11.30;8.50;;;;;;;7.61;46.40;100527.03;109404;1251;71466;-55
2024/01/14 07:06:09;;;;;;;13.30;8.90;;;;;;;7.62;46.33;100530.19;109314;1251;59346;-55
2024/01/14 07:08:37;;;;;;;12.60;9.10;;;;;;;7.63;46.25;100533.14;109551;1251;60076;-54
2024/01/14 07:11:05;;;;;;;13.70;9.40;;;;;;;7.64;46.26;100530.01;109573;1251;73932;-54
2024/01/14 07:13:33;;;;;;;11.70;7.90;;;;;;;7.65;46.22;100528.43;109559;1251;72339;-54
2024/01/14 07:16:03;;;;;;;12.70;8.50;;;;;;;7.66;46.18;100519.88;109507;1251;72698;-55
2024/01/14 07:18:31;;;;;;;13.00;8.90;;;;;;;7.66;46.18;100517.79;109160;1251;58177;-59
2024/01/14 07:20:59;;;;;;;12.30;7.80;;;;;;;7.67;46.24;100517.77;109554;1253;59222;-60
2024/01/14 07:23:26;;;;;;;11.70;8.50;;;;;;;7.69;46.17;100514.98;109277;1251;72649;-59
2024/01/14 07:26:18;;;;;;;10.40;7.50;;;;;;;7.69;46.13;100513.08;109548;1251;72602;-59
2024/01/14 07:28:53;;;;;;;11.90;8.10;;;;;;;7.71;46.13;100509.75;109546;1251;72551;-62
2024/01/14 07:31:30;;;;;;;12.60;8.30;;;;;;;7.72;46.04;100512.55;109248;1251;59335;-63
2024/01/14 07:33:58;;;;;;;10.00;7.40;;;;;;;7.73;45.99;100513.78;109559;1251;60046;-61
2024/01/14 07:36:28;;;;;;;12.20;8.50;;;;;;;7.74;45.97;100508.54;109230;1251;74806;-65
2024/01/14 07:38:55;;;;;;;11.90;8.20;;;;;;;7.75;45.91;100503.13;109568;1251;71596;-60
2024/01/14 07:41:24;;;;;;;9.60;7.60;;;;;;;7.77;45.81;100494.92;109540;1251;72681;-61
2024/01/14 07:43:52;;;;;;;10.70;7.30;;;;;;;7.78;45.92;100497.71;109574;1251;58216;-61
2024/01/14 07:46:20;;;;;;;13.10;8.40;;;;;;;7.80;45.80;100494.21;109551;1251;60093;-61
2024/01/14 07:48:48;;;;;;;11.10;7.70;;;;;;;7.81;45.79;100493.16;109550;1251;73911;-60
2024/01/14 07:51:16;;;;;;;12.00;7.80;;;;;;;7.82;45.71;100493.68;109590;1251;72464;-61
2024/01/14 07:53:44;;;;;;;10.00;6.80;;;;;;;7.83;45.44;100494.91;109531;1254;71490;-62
2024/01/14 07:56:11;;;;;;;11.80;7.90;;;;;;;7.85;45.28;100493.70;109294;1250;58259;-61
2024/01/14 07:58:39;;;;;;;10.70;7.20;;;;;;;7.86;45.36;100493.69;109422;1251;60085;-61
2024/01/14 08:01:06;;;;;;;9.90;7.10;;;;;;;7.88;45.44;100496.30;109567;1251;73939;-60
2024/01/14 08:03:35;;;;;;;11.40;8.00;;;;;;;7.89;45.44;100492.64;109417;1251;72681;-60
2024/01/14 08:06:04;;;;;;;10.50;7.80;;;;;;;7.90;45.38;100495.25;109558;1251;71576;-60
2024/01/14 08:08:31;;;;;;;11.00;8.40;;;;;;;7.92;45.74;100495.77;109213;1250;59351;-56
2024/01/14 08:10:59;;;;;;;11.00;8.40;;;;;;;7.93;45.79;100496.81;109574;1251;58778;-56
2024/01/14 08:13:30;;;;;;;12.70;8.80;;;;;;;7.94;45.68;100493.48;109567;1251;72610;-55
2024/01/14 08:15:57;;;;;;;11.10;8.60;;;;;;;7.96;45.79;100493.48;109347;1251;72800;-55
2024/01/14 08:18:30;;;;;;;11.80;8.10;;;;;;;7.97;45.90;100492.29;109510;1251;71811;-60
2024/01/14 08:20:59;;;;;;;12.30;8.60;;;;;;;7.99;46.11;100494.02;109212;1251;59319;-61
2024/01/14 08:23:34;;;;;;;12.20;8.90;;;;;;;8.00;46.27;100491.23;109485;1251;60020;-57
2024/01/14 08:26:01;;;;;;;11.20;9.10;;;;;;;8.02;46.27;100485.98;109270;1251;73913;-60
2024/01/14 08:28:31;;;;;;;13.50;9.30;;;;;;;8.02;46.27;100481.09;109457;1251;73100;-58
2024/01/14 08:30:58;;;;;;;13.70;9.40;;;;;;;8.03;46.15;100480.55;109480;1251;72714;-58
2024/01/14 08:33:27;;;;;;;12.60;9.00;;;;;;;8.04;46.12;100474.44;109491;1251;59500;-60
2024/01/14 08:35:57;;;;;;;14.50;9.20;;;;;;;8.05;46.18;100474.27;109429;1251;60232;-59
2024/01/14 08:38:26;;;;;;;13.60;9.30;;;;;;;8.06;46.33;100471.64;109395;1251;72614;-59
2024/01/14 08:40:53;;;;;;;15.60;10.00;;;;;;;8.07;46.44;100471.64;109301;1251;72865;-59
2024/01/14 08:43:21;;;;;;;14.00;10.40;;;;;;;8.08;46.47;100464.13;109403;1250;72688;-61
2024/01/14 08:45:49;;;;;;;14.20;9.70;;;;;;;8.08;46.75;100464.98;109417;1251;58647;-60
2024/01/14 08:48:17;;;;;;;14.10;9.70;;;;;;;8.09;46.85;100456.77;109458;1252;58806;-59
2024/01/14 08:50:46;;;;;;;16.60;10.90;;;;;;;8.11;47.46;100452.94;109447;1251;72309;-59
2024/01/14 08:53:14;;;;;;;19.00;10.80;;;;;;;8.15;48.81;100449.79;109431;1251;72872;-62
2024/01/14 08:55:41;;;;;;;17.20;12.50;;;;;;;8.18;49.28;100450.12;109491;1251;71679;-64
2024/01/14 08:58:09;;;;;;;16.50;11.30;;;;;;;8.19;49.50;100444.02;109427;1251;59228;-66
2024/01/14 09:00:36;;;;;;;18.90;12.30;;;;;;;8.20;49.30;100439.81;109264;1251;60098;-63
2024/01/14 09:03:04;;;;;;;17.30;11.60;;;;;;;8.21;49.14;100431.06;109464;1250;73857;-58
2024/01/14 09:05:32;;;;;;;17.90;11.80;;;;;;;8.23;49.04;100429.14;109510;1251;72837;-61
2024/01/14 09:08:00;;;;;;;14.90;11.30;;;;;;;8.24;48.91;100424.42;109444;1253;72396;-61
2024/01/14 09:10:27;;;;;;;17.20;12.00;;;;;;;8.25;48.85;100425.64;109410;1251;59558;-58
2024/01/14 09:12:56;;;;;;;16.60;11.70;;;;;;;8.26;48.76;100421.98;109478;1255;58811;-59
2024/01/14 09:15:24;;;;;;;16.40;11.70;;;;;;;8.27;48.72;100423.36;109223;1251;73885;-61
2024/01/14 09:17:51;;;;;;;18.20;12.30;;;;;;;8.28;48.72;100417.59;109508;1251;71579;-61
2024/01/14 09:20:19;;;;;;;15.50;11.60;;;;;;;8.30;48.83;100415.31;109469;1251;74880;-62
2024/01/14 09:22:47;;;;;;;16.10;11.60;;;;;;;8.31;48.84;100411.46;109456;1251;60221;-60
2024/01/14 09:25:15;;;;;;;16.80;12.20;;;;;;;8.32;48.68;100415.31;109439;1251;58847;-62
2024/01/14 09:27:43;;;;;;;15.20;12.20;;;;;;;8.33;48.55;100402.71;109200;1254;74390;-61
2024/01/14 09:30:12;;;;;;;15.10;11.50;;;;;;;8.33;48.50;100402.71;109463;1250;74996;-65
2024/01/14 09:32:41;;;;;;;21.80;13.60;;;;;;;8.33;48.85;100399.56;109173;1251;71224;-61
2024/01/14 09:35:09;;;;;;;18.30;13.20;;;;;;;8.35;49.66;100390.66;109486;1251;59368;-61
2024/01/14 09:37:36;;;;;;;19.40;13.90;;;;;;;8.37;49.92;100387.49;109484;1251;59150;-62
2024/01/14 09:40:07;;;;;;;19.00;12.20;;;;;;;8.38;49.79;100382.59;109451;1250;72645;-63
2024/01/14 09:42:35;;;;;;;16.60;13.50;;;;;;;8.39;49.55;100383.81;109423;1251;73190;-64
2024/01/14 09:45:05;;;;;;;19.60;13.40;;;;;;;8.40;49.37;100375.42;109426;1252;71100;-64
2024/01/14 09:47:33;;;;;;;18.80;13.40;;;;;;;8.41;49.38;100370.00;109477;1251;59632;-61
2024/01/14 09:50:01;;;;;;;18.70;13.10;;;;;;;8.42;49.28;100367.55;109427;1251;59794;-60
2024/01/14 09:52:31;;;;;;;19.60;12.90;;;;;;;8.44;49.21;100363.88;109425;1250;76119;-60
2024/01/14 09:54:59;;;;;;;19.80;13.90;;;;;;;8.45;49.12;100361.27;109273;1251;71549;-60
2024/01/14 09:57:28;;;;;;;17.50;12.90;;;;;;;8.45;49.14;100356.36;109252;1251;72811;-55
2024/01/14 09:59:56;;;;;;;18.80;14.30;;;;;;;8.47;49.01;100349.38;109413;1253;59284;-56
2024/01/14 10:02:25;;;;;;;18.10;13.40;;;;;;;8.47;48.86;100338.02;109099;1253;58618;-57
2024/01/14 10:04:52;;;;;;;17.60;12.70;;;;;;;8.47;48.82;100336.61;109452;1251;73080;-58
2024/01/14 10:07:20;;;;;;;17.50;12.90;;;;;;;8.48;48.46;100331.70;109468;1252;72858;-58
2024/01/14 10:09:47;;;;;;;17.30;12.30;;;;;;;8.47;48.27;100322.45;108969;1254;71472;-58
2024/01/14 10:12:15;;;;;;;16.80;11.80;;;;;;;8.48;48.24;100311.60;109148;1254;58496;-56
2024/01/14 10:14:44;;;;;;;17.70;12.80;;;;;;;8.48;48.28;100308.27;109063;1254;59247;-58
2024/01/14 10:17:15;;;;;;;17.00;12.50;;;;;;;8.49;48.37;100299.89;108971;1257;74412;-58
2024/01/14 10:19:44;;;;;;;17.40;12.40;;;;;;;8.50;48.47;100296.73;108772;1257;74771;-56
2024/01/14 10:22:13;;;;;;;16.40;11.70;;;;;;;8.51;48.58;100290.45;108811;1254;72746;-57
2024/01/14 10:24:51;;;;;;;14.60;10.40;;;;;;;8.53;48.52;100286.05;108871;1256;58644;-58
2024/01/14 10:27:22;;;;;;;13.50;9.60;;;;;;;8.53;48.22;100277.66;108859;1254;59233;-58
2024/01/14 10:30:10;;;;;;;14.00;9.40;;;;;;;8.54;47.82;100273.46;109087;1254;73904;-57
2024/01/14 10:32:40;;;;;;;13.00;9.30;;;;;;;8.56;47.35;100270.99;108974;1254;73177;-57
2024/01/14 10:35:28;;;;;;;12.00;8.10;;;;;;;8.57;46.98;100262.08;108979;1254;73657;-60
2024/01/14 10:37:57;;;;;;;11.20;7.40;;;;;;;8.57;46.90;100255.77;108877;1254;59211;-60
2024/01/14 10:40:26;;;;;;;11.20;7.70;;;;;;;8.58;46.73;100245.27;108753;1251;59477;-58
2024/01/14 10:42:54;;;;;;;11.20;7.20;;;;;;;8.58;46.60;100241.60;109151;1251;73444;-61
2024/01/14 10:45:22;;;;;;;10.10;7.40;;;;;;;8.59;46.53;100237.40;109319;1251;72221;-64
2024/01/14 10:47:53;;;;;;;10.30;7.50;;;;;;;8.59;46.43;100231.10;109302;1253;71155;-60
2024/01/14 10:50:21;;;;;;;10.10;7.30;;;;;;;8.60;46.59;100232.85;109264;1251;58629;-61
2024/01/14 10:52:54;;;;;;;9.10;6.60;;;;;;;8.61;46.49;100228.83;109254;1251;62007;-61
2024/01/14 10:55:34;;;;;;;9.50;6.70;;;;;;;8.61;46.61;100226.90;109362;1251;72841;-65
2024/01/14 10:58:03;;;;;;;10.20;7.20;;;;;;;8.62;46.39;100218.67;109271;1254;72828;-62
2024/01/14 11:00:35;;;;;;;13.50;7.80;;;;;;;8.63;46.62;100210.09;109308;1251;71718;-63
2024/01/14 11:03:04;;;;;;;13.70;7.60;;;;;;;8.63;46.93;100205.02;109326;1253;61715;-61
2024/01/14 11:05:33;;;;;;;12.60;8.40;;;;;;;8.65;47.02;100201.00;109346;1251;60184;-60
2024/01/14 11:08:03;;;;;;;11.80;8.20;;;;;;;8.64;47.35;100197.16;109060;1251;75252;-63
2024/01/14 11:10:32;;;;;;;13.00;9.10;;;;;;;8.64;47.55;100201.69;109067;1251;73753;-61
2024/01/14 11:13:28;;;;;;;11.00;8.00;;;;;;;8.65;47.33;100195.05;109268;1251;73529;-57
2024/01/14 11:16:02;;;;;;;10.80;7.70;;;;;;;8.65;47.34;100186.14;109339;1251;61401;-59
2024/01/14 11:18:39;;;;;;;15.50;8.30;;;;;;;8.64;47.22;100171.45;109235;1251;61733;-60
2024/01/14 11:21:14;;;;;;;17.10;8.30;;;;;;;8.81;57.78;100132.29;109161;1251;73541;-59